| Date | Time | Temp. (oF) | Dew Point (oF) | Rel. Hum. (%) | Press. (in.) | Wind Dir. | Wind Speed (mph) | Hourly Rainfall (in.) |
|
|---|---|---|---|---|---|---|---|---|---|
| 1 | 10/06 | 00:00 | 62 | 60 | 94 | 30.24 | SSE | 0 | 0.00 |
| 2 | 10/05 | 23:00 | 63 | 60 | 92 | 30.25 | SSE | 0 | 0.00 |
| 3 | 10/05 | 22:00 | 65 | 61 | 87 | 30.25 | SSE | 0 | 0.00 |
| 4 | 10/05 | 21:00 | 68 | 62 | 82 | 30.25 | SSE | 0 | 0.00 |
| 5 | 10/05 | 20:00 | 71 | 63 | 76 | 30.24 | SSE | 0 | 0.00 |
| 6 | 10/05 | 19:00 | 75 | 64 | 71 | 30.23 | S | 0 | 0.00 |
| 7 | 10/05 | 18:00 | 77 | 64 | 65 | 30.23 | SSE | 3 | 0.00 |
| 8 | 10/05 | 17:00 | 79 | 64 | 62 | 30.23 | ESE | 1 | 0.00 |
| 9 | 10/05 | 16:00 | 79 | 65 | 63 | 30.23 | NE | 7 | 0.00 |
| 10 | 10/05 | 15:00 | 79 | 65 | 63 | 30.25 | ENE | 6 | 0.00 |
| 11 | 10/05 | 14:00 | 78 | 66 | 67 | 30.26 | NE | 7 | 0.00 |
| 12 | 10/05 | 13:00 | 75 | 66 | 75 | 30.30 | ENE | 5 | 0.00 |
| 13 | 10/05 | 12:00 | 72 | 66 | 84 | 30.32 | SSW | 0 | 0.00 |
| 14 | 10/05 | 11:00 | 70 | 66 | 89 | 30.34 | NE | 2 | 0.00 |
| 15 | 10/05 | 10:00 | 69 | 66 | 93 | 30.34 | NE | 1 | 0.00 |
| 16 | 10/05 | 09:00 | 67 | 65 | 96 | 30.35 | NNE | 2 | 0.00 |
| 17 | 10/05 | 08:00 | 66 | 65 | 97 | 30.35 | NNE | 0 | 0.00 |
| 18 | 10/05 | 07:00 | 66 | 65 | 97 | 30.34 | SSW | 0 | 0.00 |
| 19 | 10/05 | 06:00 | 66 | 65 | 97 | 30.33 | SSW | 0 | 0.00 |
| 20 | 10/05 | 05:00 | 66 | 64 | 96 | 30.31 | E | 3 | 0.00 |
| 21 | 10/05 | 04:00 | 67 | 66 | 97 | 30.32 | S | 0 | 0.00 |
| 22 | 10/05 | 03:00 | 67 | 66 | 97 | 30.31 | S | 1 | 0.00 |
| 23 | 10/05 | 02:00 | 68 | 67 | 98 | 30.32 | ESE | 1 | 0.00 |
| 24 | 10/05 | 01:00 | 67 | 66 | 99 | 30.32 | SSE | 2 | 0.00 |